Time;durP1;ratioP1;P1;durP2;ratioP2;P2;SDS_P1;SDS_P2;PMS_P1;PMS_P2;Temp;Humidity;BMP_temperature;BMP_pressure;BME280_temperature;BME280_humidity;BME280_pressure;Samples;Min_cycle;Max_cycle;Signal;HPM_P1;HPM_P2
2021/03/16 00:01:52;;;;;;;9.80;2.88;;;4.70;99.90;;;;;;4911785;29;20056;-95
2021/03/16 00:04:25;;;;;;;9.15;3.03;;;4.70;99.90;;;;;;4909440;29;20062;-96
2021/03/16 00:07:17;;;;;;;7.68;2.50;;;4.70;99.90;;;;;;4923953;29;20048;-96
2021/03/16 00:09:46;;;;;;;14.80;2.72;;;4.70;99.90;;;;;;4908567;29;20500;-96
2021/03/16 00:12:14;;;;;;;;;;;4.60;99.90;;;;;;4908668;29;20070;-96
2021/03/16 00:14:44;;;;;;;11.30;2.67;;;4.70;99.90;;;;;;4907642;29;20256;-96
2021/03/16 00:17:15;;;;;;;7.05;2.72;;;4.60;99.90;;;;;;4924029;29;20043;-96
2021/03/16 00:19:46;;;;;;;5.03;2.42;;;4.80;99.90;;;;;;4908401;29;20048;-96
2021/03/16 00:22:15;;;;;;;7.95;2.30;;;4.70;99.90;;;;;;4922885;29;20060;-96
2021/03/16 00:25:39;;;;;;;7.65;2.67;;;4.80;99.90;;;;;;4908194;29;20050;-96
2021/03/16 00:28:07;;;;;;;10.50;2.50;;;4.80;99.90;;;;;;4895582;29;20048;-96
2021/03/16 00:30:40;;;;;;;8.82;2.33;;;4.80;99.90;;;;;;4904092;29;20063;-95
2021/03/16 00:33:08;;;;;;;7.40;2.60;;;4.90;99.90;;;;;;4909290;28;20056;-96
2021/03/16 00:35:38;;;;;;;5.82;2.22;;;4.90;99.90;;;;;;4910816;28;20066;-96
2021/03/16 00:38:06;;;;;;;8.80;2.42;;;5.00;99.90;;;;;;4890968;29;20052;-95
2021/03/16 00:40:40;;;;;;;5.85;2.20;;;4.90;99.90;;;;;;4899215;29;20048;-96
2021/03/16 00:43:09;;;;;;;8.77;2.05;;;4.90;99.90;;;;;;4925569;29;20058;-96
2021/03/16 00:45:36;;;;;;;5.68;2.28;;;5.00;99.90;;;;;;4909020;29;20043;-96
2021/03/16 00:48:06;;;;;;;7.38;2.25;;;4.90;99.90;;;;;;4925387;29;20060;-96
2021/03/16 00:50:37;;;;;;;6.22;2.30;;;4.90;99.90;;;;;;4928501;29;20043;-96
2021/03/16 00:53:06;;;;;;;8.77;2.70;;;4.90;99.90;;;;;;4927492;29;20044;-96
2021/03/16 00:55:34;;;;;;;10.85;2.40;;;5.00;99.90;;;;;;4927920;29;20056;-96
2021/03/16 00:58:02;;;;;;;4.88;2.25;;;5.00;99.90;;;;;;4912375;29;20069;-96
2021/03/16 01:00:30;;;;;;;5.90;2.58;;;5.00;99.90;;;;;;4926774;29;20055;-96
2021/03/16 01:02:58;;;;;;;12.43;2.80;;;5.00;99.90;;;;;;4926470;29;20062;-95
2021/03/16 01:05:26;;;;;;;11.27;2.65;;;4.90;99.90;;;;;;4927468;29;20056;-96
2021/03/16 01:07:55;;;;;;;8.63;2.30;;;4.90;99.90;;;;;;4943745;29;20051;-96
2021/03/16 01:10:24;;;;;;;7.85;2.55;;;4.90;99.90;;;;;;4926464;29;20052;-96
2021/03/16 01:12:53;;;;;;;9.57;1.95;;;4.90;99.90;;;;;;4927184;29;20035;-96
2021/03/16 01:15:21;;;;;;;;;;;4.90;99.90;;;;;;4913578;28;20046;-95
2021/03/16 01:17:48;;;;;;;10.80;2.28;;;4.80;99.90;;;;;;4928739;29;19923;-96
2021/03/16 01:20:20;;;;;;;9.65;2.38;;;4.80;99.90;;;;;;4944396;28;20045;-96
2021/03/16 01:22:48;;;;;;;8.55;1.98;;;4.70;99.90;;;;;;4929003;29;20044;-96
2021/03/16 01:28:10;;;;;;;8.00;1.85;;;4.80;99.90;;;;;;4959036;29;20031;-85
2021/03/16 01:30:47;;;;;;;7.03;1.63;;;4.80;99.90;;;;;;4946069;29;20028;-88
2021/03/16 01:33:21;;;;;;;8.25;2.42;;;4.80;99.90;;;;;;4944901;29;20048;-96
2021/03/16 01:35:49;;;;;;;7.78;2.15;;;4.90;99.90;;;;;;4944130;29;20043;-95
2021/03/16 01:38:17;;;;;;;11.98;2.45;;;4.90;99.90;;;;;;4944868;29;20036;-96
2021/03/16 01:40:44;;;;;;;10.52;1.95;;;4.90;99.90;;;;;;4977801;23;20029;-91
2021/03/16 01:43:20;;;;;;;6.43;1.63;;;4.90;99.90;;;;;;4871354;29;20054;-96
2021/03/16 01:45:49;;;;;;;10.07;2.05;;;4.90;99.90;;;;;;4872517;29;20052;-96
2021/03/16 01:48:23;;;;;;;5.00;1.58;;;5.00;99.90;;;;;;4887353;29;20074;-96
2021/03/16 01:50:51;;;;;;;5.72;1.98;;;5.00;99.90;;;;;;4871270;29;20061;-96
2021/03/16 01:53:19;;;;;;;5.85;2.03;;;4.90;99.90;;;;;;5299699;23;20031;-89
2021/03/16 01:55:51;;;;;;;8.18;1.52;;;5.00;99.90;;;;;;4905525;29;20059;-96
2021/03/16 01:58:22;;;;;;;7.88;1.65;;;5.00;99.90;;;;;;4921967;29;20052;-96
2021/03/16 02:01:09;;;;;;;4.78;1.70;;;5.00;99.90;;;;;;4940958;29;20066;-96
2021/03/16 02:06:53;;;;;;;5.85;2.00;;;4.90;99.90;;;;;;4890777;29;19924;-81
2021/03/16 02:09:43;;;;;;;10.10;2.50;;;4.80;99.90;;;;;;4878000;29;20064;-82
2021/03/16 02:12:32;;;;;;;13.45;1.77;;;4.80;99.90;;;;;;4865933;29;20041;-83
2021/03/16 02:15:24;;;;;;;7.78;2.00;;;4.90;99.90;;;;;;4865161;29;20068;-84
2021/03/16 02:18:14;;;;;;;6.00;1.90;;;5.00;99.90;;;;;;4860080;29;20078;-82
2021/03/16 02:21:08;;;;;;;6.32;1.83;;;5.00;99.90;;;;;;4874640;29;20053;-82
2021/03/16 02:24:17;;;;;;;13.48;2.17;;;5.00;99.90;;;;;;4861536;29;20542;-82
2021/03/16 02:27:07;;;;;;;;;;;4.90;99.90;;;;;;4860918;29;20053;-83
2021/03/16 02:29:59;;;;;;;8.48;2.20;;;4.90;99.90;;;;;;4863951;29;19935;-82
2021/03/16 02:32:47;;;;;;;6.35;1.70;;;4.90;99.90;;;;;;4863816;29;20064;-82
2021/03/16 02:35:34;;;;;;;9.15;2.10;;;4.90;99.90;;;;;;4874972;29;20068;-83
2021/03/16 02:38:25;;;;;;;8.10;2.08;;;4.80;99.90;;;;;;4872217;29;20057;-84
2021/03/16 02:41:15;;;;;;;9.85;2.03;;;4.90;99.90;;;;;;4874422;29;20123;-82
2021/03/16 02:44:02;;;;;;;6.20;2.13;;;4.90;99.90;;;;;;4881034;29;20061;-82
2021/03/16 02:46:50;;;;;;;6.95;1.73;;;4.90;99.90;;;;;;4899871;29;20368;-82
2021/03/16 02:49:42;;;;;;;6.53;1.90;;;5.00;99.90;;;;;;4881077;29;20061;-82
2021/03/16 02:52:28;;;;;;;7.40;2.22;;;4.90;99.90;;;;;;4896923;29;20061;-83
2021/03/16 02:55:16;;;;;;;7.03;1.85;;;4.90;99.90;;;;;;4894277;29;20361;-83
2021/03/16 02:58:03;;;;;;;11.73;2.03;;;4.90;99.90;;;;;;4876712;29;20063;-83
2021/03/16 03:00:51;;;;;;;5.97;1.92;;;4.80;99.90;;;;;;4867990;29;20041;-82
2021/03/16 03:03:40;;;;;;;6.38;2.03;;;4.90;99.90;;;;;;4886412;29;20075;-82
2021/03/16 03:06:27;;;;;;;5.20;2.33;;;5.00;99.90;;;;;;4901579;29;20064;-82
2021/03/16 03:09:15;;;;;;;4.10;1.77;;;5.00;99.90;;;;;;4901812;29;20041;-83
2021/03/16 03:12:01;;;;;;;6.88;2.30;;;4.90;99.90;;;;;;4890345;29;20045;-82
2021/03/16 03:14:47;;;;;;;5.97;2.17;;;4.90;99.90;;;;;;4896322;29;20063;-83
2021/03/16 03:17:33;;;;;;;7.40;2.10;;;4.90;99.90;;;;;;4892474;29;20067;-83
2021/03/16 03:20:21;;;;;;;4.63;1.60;;;5.00;99.90;;;;;;4888929;29;20040;-83
2021/03/16 03:23:11;;;;;;;7.47;2.10;;;4.90;99.90;;;;;;4889635;29;20069;-83
2021/03/16 03:26:01;;;;;;;7.63;2.20;;;5.00;99.90;;;;;;4887901;29;20060;-83
2021/03/16 03:28:48;;;;;;;6.22;2.00;;;4.90;99.90;;;;;;4888308;29;20061;-83
2021/03/16 03:31:34;;;;;;;9.85;1.98;;;4.90;99.90;;;;;;4875057;29;20072;-82
2021/03/16 03:34:22;;;;;;;8.43;2.45;;;5.00;99.90;;;;;;4888162;29;20134;-83
2021/03/16 03:37:10;;;;;;;10.75;2.92;;;5.00;99.90;;;;;;4888654;29;20053;-83
2021/03/16 03:39:58;;;;;;;12.83;3.30;;;4.90;99.90;;;;;;4904239;29;20049;-84
2021/03/16 03:42:45;;;;;;;12.05;2.90;;;4.90;99.90;;;;;;4888662;29;20057;-84
2021/03/16 03:45:34;;;;;;;10.75;3.22;;;5.00;99.90;;;;;;4889539;29;20379;-83
2021/03/16 03:48:22;;;;;;;10.88;3.60;;;5.00;99.90;;;;;;4908793;29;20040;-83
2021/03/16 03:51:08;;;;;;;11.75;3.10;;;5.10;99.90;;;;;;4907463;29;20061;-84
2021/03/16 03:53:56;;;;;;;17.48;3.42;;;5.10;99.90;;;;;;4920970;29;20053;-84
2021/03/16 03:56:43;;;;;;;15.07;3.58;;;5.10;99.90;;;;;;4896978;29;20463;-83
2021/03/16 03:59:30;;;;;;;10.48;3.55;;;5.10;99.90;;;;;;4898014;29;20067;-83
2021/03/16 04:02:17;;;;;;;16.30;4.15;;;5.00;99.90;;;;;;4880201;29;20071;-83
2021/03/16 04:05:05;;;;;;;20.20;3.45;;;5.00;99.90;;;;;;4882911;29;20061;-82
2021/03/16 04:07:52;;;;;;;14.95;4.32;;;5.00;99.90;;;;;;4884927;29;20057;-82
2021/03/16 04:10:39;;;;;;;16.17;3.28;;;5.00;99.90;;;;;;4886469;29;20061;-82
2021/03/16 04:13:25;;;;;;;11.48;3.63;;;5.00;99.90;;;;;;4884756;29;20049;-80
2021/03/16 04:16:12;;;;;;;21.08;4.90;;;5.00;99.90;;;;;;4886938;29;20067;-82
2021/03/16 04:18:59;;;;;;;13.32;3.42;;;5.00;99.90;;;;;;4887803;29;20061;-83
2021/03/16 04:21:46;;;;;;;11.50;3.47;;;5.00;99.90;;;;;;4899161;29;20063;-84
2021/03/16 04:24:35;;;;;;;13.85;3.40;;;5.10;99.90;;;;;;4888388;29;20053;-82
2021/03/16 04:27:28;;;;;;;11.57;3.15;;;4.90;99.90;;;;;;4886836;29;20065;-83
2021/03/16 04:30:14;;;;;;;7.95;3.05;;;4.90;99.90;;;;;;4902519;29;20044;-83
2021/03/16 04:33:04;;;;;;;14.52;3.60;;;4.90;99.90;;;;;;4904998;29;20075;-84
2021/03/16 04:35:51;;;;;;;9.32;3.22;;;4.80;99.90;;;;;;4888028;29;20054;-82
2021/03/16 04:38:37;;;;;;;15.20;4.65;;;4.80;99.90;;;;;;4900419;29;20459;-82
2021/03/16 04:41:26;;;;;;;;;;;4.80;99.90;;;;;;4885864;29;20053;-83
2021/03/16 04:44:12;;;;;;;11.15;3.22;;;4.80;99.90;;;;;;4900897;29;19924;-81
2021/03/16 04:47:01;;;;;;;9.68;3.50;;;4.70;99.90;;;;;;4900780;29;20063;-82
2021/03/16 04:49:47;;;;;;;12.05;4.28;;;4.70;99.90;;;;;;4877847;29;20061;-83
2021/03/16 04:52:33;;;;;;;14.90;3.70;;;4.80;99.90;;;;;;4878214;29;20052;-83
2021/03/16 04:55:20;;;;;;;8.60;3.47;;;4.80;99.90;;;;;;4883124;29;20063;-83
2021/03/16 04:58:06;;;;;;;19.60;3.20;;;4.80;99.90;;;;;;4887662;29;20087;-83
2021/03/16 05:00:53;;;;;;;18.42;4.20;;;4.80;99.90;;;;;;4885357;29;20045;-83
2021/03/16 05:03:39;;;;;;;10.50;2.92;;;4.70;99.90;;;;;;4886931;29;20061;-83
2021/03/16 05:06:26;;;;;;;11.85;3.20;;;4.80;99.90;;;;;;4900345;29;20056;-82
2021/03/16 05:09:12;;;;;;;13.00;2.95;;;4.70;99.90;;;;;;4877506;29;20499;-83
2021/03/16 05:11:58;;;;;;;16.80;3.47;;;4.70;99.90;;;;;;4883520;29;20037;-83
2021/03/16 05:14:45;;;;;;;13.32;3.50;;;4.70;99.90;;;;;;4887583;29;20053;-83
2021/03/16 05:17:32;;;;;;;13.70;3.20;;;4.70;99.90;;;;;;4888611;29;20041;-84
2021/03/16 05:20:18;;;;;;;10.85;3.22;;;4.70;99.90;;;;;;4905017;29;20062;-83
2021/03/16 05:23:04;;;;;;;15.23;3.65;;;4.70;99.90;;;;;;4904466;29;20066;-83
2021/03/16 05:25:52;;;;;;;16.80;3.88;;;4.60;99.90;;;;;;4885414;29;20067;-83
2021/03/16 05:28:38;;;;;;;13.05;2.85;;;4.70;99.90;;;;;;4885822;29;20052;-83
2021/03/16 05:31:24;;;;;;;10.70;2.97;;;4.80;99.90;;;;;;4886425;29;20037;-83
2021/03/16 05:34:12;;;;;;;16.55;3.40;;;4.80;99.90;;;;;;4886864;29;20060;-82
2021/03/16 05:36:58;;;;;;;8.90;3.47;;;4.80;99.90;;;;;;4888039;29;20056;-83
2021/03/16 05:39:45;;;;;;;13.07;3.38;;;4.70;99.90;;;;;;4903286;29;20033;-83
2021/03/16 05:42:32;;;;;;;11.13;3.10;;;4.70;99.90;;;;;;4887815;29;20043;-83
2021/03/16 05:45:19;;;;;;;18.38;3.35;;;4.70;99.90;;;;;;4888094;29;20071;-83
2021/03/16 05:48:09;;;;;;;8.80;2.83;;;4.70;99.90;;;;;;4886570;29;20052;-82
2021/03/16 05:51:00;;;;;;;9.20;3.33;;;4.70;99.90;;;;;;4899843;29;20049;-82
2021/03/16 05:53:53;;;;;;;19.92;3.70;;;4.60;99.90;;;;;;4887071;29;20052;-83
2021/03/16 05:56:43;;;;;;;14.32;3.80;;;4.60;99.90;;;;;;4887622;29;20063;-83
2021/03/16 05:59:29;;;;;;;12.10;3.38;;;4.70;99.90;;;;;;4891162;29;20048;-84
2021/03/16 06:02:16;;;;;;;10.02;2.90;;;4.70;99.90;;;;;;4891668;29;20071;-83
2021/03/16 06:05:03;;;;;;;8.52;3.10;;;4.70;99.90;;;;;;4906959;29;20049;-84
2021/03/16 06:07:53;;;;;;;8.35;3.20;;;4.80;99.90;;;;;;4891172;29;20053;-83
2021/03/16 06:10:39;;;;;;;11.48;3.72;;;4.70;99.90;;;;;;4890986;29;20061;-83
2021/03/16 06:13:27;;;;;;;10.68;3.00;;;4.80;99.90;;;;;;4890135;29;20041;-83
2021/03/16 06:16:18;;;;;;;15.68;4.20;;;4.80;99.90;;;;;;4889598;29;20045;-82
2021/03/16 06:19:05;;;;;;;11.68;4.03;;;4.80;99.90;;;;;;4890762;29;20053;-85
2021/03/16 06:21:59;;;;;;;10.90;3.40;;;4.80;99.90;;;;;;4889969;29;20049;-84
2021/03/16 06:24:46;;;;;;;14.32;4.15;;;4.80;99.90;;;;;;4906376;29;20051;-84
2021/03/16 06:27:33;;;;;;;15.70;3.85;;;4.80;99.90;;;;;;4890691;29;20041;-83
2021/03/16 06:30:25;;;;;;;36.20;5.72;;;4.90;99.90;;;;;;4888935;29;20271;-83
2021/03/16 06:33:18;;;;;;;9.70;3.58;;;4.90;99.90;;;;;;4906445;29;20060;-83
2021/03/16 06:36:07;;;;;;;10.65;3.70;;;5.00;99.90;;;;;;4909197;29;20040;-84
2021/03/16 06:38:54;;;;;;;16.85;4.18;;;5.00;99.90;;;;;;4921949;29;20048;-83
2021/03/16 06:41:41;;;;;;;42.20;5.60;;;5.00;99.90;;;;;;4922862;29;20049;-83
2021/03/16 06:44:27;;;;;;;59.97;8.55;;;4.90;99.90;;;;;;4906571;29;20049;-82
2021/03/16 06:47:14;;;;;;;13.52;4.10;;;4.80;99.90;;;;;;4886798;29;20060;-83
2021/03/16 06:50:00;;;;;;;23.83;5.07;;;4.80;99.90;;;;;;4884464;29;20056;-82
2021/03/16 06:52:49;;;;;;;17.48;3.78;;;4.70;99.90;;;;;;4886135;29;20071;-84
2021/03/16 06:55:37;;;;;;;15.95;3.90;;;4.60;99.90;;;;;;4897398;29;20579;-84
2021/03/16 06:58:27;;;;;;;17.15;3.75;;;4.70;99.90;;;;;;4889328;29;20057;-83
2021/03/16 07:01:16;;;;;;;11.20;3.40;;;4.80;99.90;;;;;;4888188;29;20057;-82
2021/03/16 07:04:15;;;;;;;13.07;3.42;;;4.80;99.90;;;;;;4883044;29;20045;-83
2021/03/16 07:07:01;;;;;;;10.45;3.42;;;5.00;99.90;;;;;;4885314;29;20057;-82
2021/03/16 07:09:48;;;;;;;10.30;3.63;;;5.20;99.90;;;;;;4881749;29;20067;-82
2021/03/16 07:12:38;;;;;;;10.77;3.28;;;5.30;99.90;;;;;;4883368;29;20057;-83
2021/03/16 07:15:25;;;;;;;8.45;3.13;;;5.50;99.90;;;;;;4885757;29;20053;-82
2021/03/16 07:18:11;;;;;;;14.10;3.55;;;5.50;99.90;;;;;;4886836;29;20071;-83
2021/03/16 07:21:01;;;;;;;9.75;3.47;;;5.50;99.90;;;;;;4916489;29;20062;-83
2021/03/16 07:23:50;;;;;;;14.32;3.65;;;5.50;99.90;;;;;;4900752;29;20501;-82
2021/03/16 07:26:37;;;;;;;15.82;4.38;;;5.50;99.90;;;;;;4897582;29;20063;-83
2021/03/16 07:29:24;;;;;;;9.38;3.40;;;5.60;99.90;;;;;;4883795;29;20053;-82
2021/03/16 07:32:11;;;;;;;13.00;4.43;;;5.70;99.90;;;;;;4881777;29;20053;-82
2021/03/16 07:35:03;;;;;;;14.73;4.05;;;5.70;99.90;;;;;;4889993;29;20061;-81
2021/03/16 07:37:54;;;;;;;9.85;3.28;;;5.80;99.90;;;;;;4872427;29;20468;-81
2021/03/16 07:40:43;;;;;;;9.27;3.17;;;5.90;99.90;;;;;;4873040;29;20052;-82
2021/03/16 07:43:33;;;;;;;18.38;3.30;;;6.10;99.90;;;;;;4892804;29;20061;-81
2021/03/16 07:46:20;;;;;;;11.20;3.03;;;6.10;99.90;;;;;;4895745;29;20053;-84
2021/03/16 07:49:08;;;;;;;17.25;4.57;;;6.10;99.90;;;;;;4886762;29;20057;-83
2021/03/16 07:51:55;;;;;;;9.65;3.40;;;6.20;99.90;;;;;;4874488;29;20067;-83
2021/03/16 07:54:47;;;;;;;17.15;3.38;;;6.20;99.90;;;;;;4888405;29;20055;-84
2021/03/16 08:00:36;;;;;;;9.85;3.30;;;6.30;99.90;;;;;;4882875;29;20057;-83
2021/03/16 08:03:24;;;;;;;21.77;3.60;;;6.30;99.90;;;;;;4885673;29;20049;-84
2021/03/16 08:06:25;;;;;;;14.75;3.70;;;6.50;99.90;;;;;;5282644;23;20057;-84
2021/03/16 08:09:23;;;;;;;6.38;2.67;;;6.60;99.90;;;;;;4905672;29;20053;-84
2021/03/16 08:12:27;;;;;;;9.18;3.28;;;6.60;99.90;;;;;;4906057;29;20055;-83
2021/03/16 08:15:15;;;;;;;11.15;3.40;;;6.50;99.90;;;;;;4921569;29;20049;-84
2021/03/16 08:18:05;;;;;;;11.65;4.10;;;6.50;99.90;;;;;;4900618;29;20067;-84
2021/03/16 08:20:51;;;;;;;12.82;3.90;;;6.60;99.90;;;;;;4904290;29;20045;-83
2021/03/16 08:23:42;;;;;;;19.13;4.95;;;6.60;99.90;;;;;;5041858;23;21016;-82
2021/03/16 08:26:30;;;;;;;15.90;4.57;;;6.50;99.90;;;;;;4931402;29;20041;-84
2021/03/16 08:29:26;;;;;;;12.57;3.88;;;6.40;99.90;;;;;;4927090;29;20066;-82
2021/03/16 08:32:15;;;;;;;14.05;4.97;;;6.30;99.90;;;;;;4921616;29;20052;-82
2021/03/16 08:35:02;;;;;;;12.68;4.47;;;6.40;99.90;;;;;;4922198;29;20071;-83
2021/03/16 08:37:52;;;;;;;10.45;4.65;;;6.30;99.90;;;;;;4937254;29;20066;-83
2021/03/16 08:46:33;;;;;;;12.25;4.85;;;6.40;99.90;;;;;;5437313;23;20035;-83
2021/03/16 08:49:28;;;;;;;14.40;5.25;;;6.40;99.90;;;;;;4960887;29;20047;-84
2021/03/16 08:52:19;;;;;;;16.00;4.85;;;6.60;99.90;;;;;;5385119;23;20038;-83
2021/03/16 08:55:09;;;;;;;12.60;6.05;;;6.80;99.90;;;;;;4960311;29;20054;-85
2021/03/16 08:57:57;;;;;;;12.30;4.93;;;7.10;99.90;;;;;;4960508;29;20039;-84
2021/03/16 09:00:47;;;;;;;13.02;5.95;;;7.10;99.90;;;;;;5002931;23;20048;-83
2021/03/16 09:03:37;;;;;;;10.77;5.38;;;7.30;99.90;;;;;;4921644;29;20058;-84
2021/03/16 09:06:26;;;;;;;24.92;6.00;;;7.60;99.90;;;;;;4921407;29;20062;-84
2021/03/16 09:09:14;;;;;;;24.30;5.82;;;7.80;99.90;;;;;;4924928;29;20036;-83
2021/03/16 09:12:29;;;;;;;14.10;5.55;;;7.70;99.90;;;;;;4919575;29;20056;-83
2021/03/16 09:15:30;;;;;;;;;;;;;;;;;;;;;
2021/03/16 09:18:32;;;;;;;12.55;5.72;;;8.10;99.90;;;;;;4924861;29;20028;-83
2021/03/16 09:21:27;;;;;;;13.38;6.13;;;8.20;99.80;;;;;;4928721;29;20141;-83
2021/03/16 09:24:22;;;;;;;16.55;6.15;;;8.00;99.90;;;;;;4933696;29;20042;-83
2021/03/16 09:27:11;;;;;;;17.13;6.82;;;7.90;99.80;;;;;;4905710;29;20059;-83
2021/03/16 09:30:01;;;;;;;15.23;5.90;;;7.60;99.90;;;;;;4905623;29;20250;-83
2021/03/16 09:32:52;;;;;;;11.35;5.55;;;7.60;99.90;;;;;;4915134;29;20040;-84
2021/03/16 09:36:04;;;;;;;11.68;5.22;;;7.50;99.70;;;;;;4921916;29;20048;-83
2021/03/16 09:39:26;;;;;;;18.02;6.82;;;7.70;99.90;;;;;;4890077;29;20064;-83
2021/03/16 09:42:15;;;;;;;10.35;5.65;;;7.70;99.90;;;;;;4889409;29;20048;-83
2021/03/16 09:45:02;;;;;;;16.33;5.90;;;7.40;99.90;;;;;;4895354;29;20039;-84
2021/03/16 09:47:46;;;;;;;18.13;6.82;;;7.30;99.90;;;;;;4921712;29;20062;-84
2021/03/16 09:50:19;;;;;;;17.70;6.63;;;7.30;99.90;;;;;;4922611;29;20048;-84
2021/03/16 09:56:15;;;;;;;14.38;5.88;;;7.90;98.80;;;;;;4923547;29;20047;-84
2021/03/16 09:59:04;;;;;;;18.75;7.10;;;7.80;98.40;;;;;;4909274;29;20040;-85
2021/03/16 10:01:42;;;;;;;25.08;6.75;;;7.90;97.50;;;;;;4945494;23;20059;-84
2021/03/16 10:04:20;;;;;;;16.30;6.75;;;7.90;98.40;;;;;;4918919;29;20058;-84
2021/03/16 10:07:13;;;;;;;16.15;5.63;;;7.90;97.90;;;;;;4932033;29;20032;-86
2021/03/16 10:09:57;;;;;;;17.38;5.93;;;7.90;98.00;;;;;;4928279;29;20056;-89
2021/03/16 10:13:18;;;;;;;12.05;5.78;;;8.10;97.90;;;;;;4938977;29;20055;-86
2021/03/16 10:15:49;;;;;;;14.45;5.40;;;8.20;96.10;;;;;;4939573;29;20086;-83
2021/03/16 10:18:17;;;;;;;18.25;5.65;;;8.70;94.50;;;;;;4901211;29;20070;-89
2021/03/16 10:20:53;;;;;;;12.85;5.68;;;9.90;90.90;;;;;;4919876;29;20067;-86
2021/03/16 10:23:34;;;;;;;10.35;4.50;;;10.70;83.50;;;;;;4919685;29;20052;-89
2021/03/16 10:26:09;;;;;;;10.45;4.20;;;10.20;78.50;;;;;;4919198;29;20046;-89
2021/03/16 10:29:01;;;;;;;13.98;3.72;;;11.10;76.00;;;;;;4918704;29;20054;-86
2021/03/16 10:31:40;;;;;;;13.95;3.83;;;11.20;69.90;;;;;;4916262;29;20513;-86
2021/03/16 10:34:13;;;;;;;12.50;4.32;;;10.30;74.10;;;;;;4968058;23;20413;-88
2021/03/16 10:36:48;;;;;;;13.52;4.05;;;9.90;77.90;;;;;;4941890;29;20040;-89
2021/03/16 10:39:21;;;;;;;12.30;4.75;;;9.60;79.60;;;;;;4927694;28;20035;-91
2021/03/16 10:41:51;;;;;;;9.80;3.83;;;9.70;81.10;;;;;;5226590;23;20049;-87
2021/03/16 10:44:20;;;;;;;13.40;3.60;;;10.80;75.50;;;;;;4910868;29;20060;-87
2021/03/16 10:46:49;;;;;;;;;;;10.70;73.80;;;;;;4927025;29;20032;-86
2021/03/16 10:49:33;;;;;;;10.90;3.65;;;10.10;77.00;;;;;;4914483;29;19919;-88
2021/03/16 10:52:01;;;;;;;9.25;4.30;;;9.80;78.40;;;;;;4919538;29;20072;-87
2021/03/16 10:54:38;;;;;;;13.45;4.32;;;9.70;78.20;;;;;;4922760;29;20052;-89
2021/03/16 10:57:09;;;;;;;11.80;3.50;;;9.50;80.90;;;;;;5207977;23;20043;-86
2021/03/16 10:59:39;;;;;;;15.35;4.10;;;9.20;81.10;;;;;;4945644;29;20058;-87
2021/03/16 11:02:08;;;;;;;32.33;4.80;;;8.70;84.10;;;;;;4929988;29;20078;-88
2021/03/16 11:04:39;;;;;;;13.90;3.65;;;9.20;83.80;;;;;;4929782;29;20056;-87
2021/03/16 11:07:16;;;;;;;8.18;3.25;;;9.80;81.10;;;;;;4927914;29;20048;-89
2021/03/16 11:12:37;;;;;;;11.93;3.72;;;9.60;79.10;;;;;;4927140;29;20063;-88
2021/03/16 11:15:11;;;;;;;15.55;4.88;;;10.60;75.80;;;;;;4961558;28;20051;-87
2021/03/16 11:17:40;;;;;;;17.85;4.38;;;10.70;73.90;;;;;;4929639;29;20055;-87
2021/03/16 11:20:15;;;;;;;10.93;4.00;;;10.40;74.60;;;;;;4929740;29;20036;-89
2021/03/16 11:25:26;;;;;;;13.15;3.95;;;9.90;75.70;;;;;;4935331;29;20036;-85
2021/03/16 11:27:59;;;;;;;12.65;4.50;;;9.90;76.00;;;;;;4913918;29;20051;-88
2021/03/16 11:30:31;;;;;;;10.13;4.35;;;9.40;77.70;;;;;;4928775;29;20052;-87
2021/03/16 11:33:01;;;;;;;16.75;4.55;;;9.50;81.00;;;;;;4913312;28;20048;-87
2021/03/16 11:35:52;;;;;;;18.05;5.15;;;9.40;80.00;;;;;;4944660;29;20055;-89
2021/03/16 11:41:31;;;;;;;12.90;4.10;;;9.10;81.50;;;;;;5400942;23;20032;-88
2021/03/16 11:44:23;;;;;;;22.13;4.45;;;8.90;83.90;;;;;;4959895;29;20044;-87
2021/03/16 11:47:27;;;;;;;12.73;4.80;;;9.00;84.70;;;;;;4959439;29;20044;-88
2021/03/16 11:54:23;;;;;;;12.95;3.97;;;9.30;83.80;;;;;;4961319;29;20024;-88
2021/03/16 11:57:13;;;;;;;13.40;3.38;;;9.30;84.90;;;;;;5233587;23;20057;-91
2021/03/16 12:00:12;;;;;;;9.68;3.30;;;9.90;80.60;;;;;;4941765;29;20055;-88
2021/03/16 12:02:59;;;;;;;14.25;3.58;;;10.20;76.50;;;;;;4919832;29;20057;-87
2021/03/16 12:05:47;;;;;;;13.00;3.33;;;10.60;76.70;;;;;;4916529;29;20060;-87
2021/03/16 12:08:43;;;;;;;16.55;4.10;;;10.90;75.00;;;;;;4933660;29;20044;-87
2021/03/16 12:11:33;;;;;;;16.92;4.43;;;10.40;74.40;;;;;;4935815;29;20052;-86
2021/03/16 12:14:20;;;;;;;14.35;3.72;;;10.00;77.60;;;;;;4923852;29;20036;-87
2021/03/16 12:17:11;;;;;;;13.43;3.92;;;9.70;79.20;;;;;;4939974;29;20052;-86
2021/03/16 12:20:01;;;;;;;15.80;4.55;;;9.40;80.70;;;;;;4921727;29;20075;-85
2021/03/16 12:22:56;;;;;;;20.70;4.85;;;9.60;80.90;;;;;;4921322;29;20063;-89
2021/03/16 12:25:42;;;;;;;16.17;4.65;;;9.90;80.70;;;;;;4936406;29;20064;-87
2021/03/16 12:28:29;;;;;;;23.52;5.30;;;9.70;81.00;;;;;;4936891;29;20052;-85
2021/03/16 12:31:20;;;;;;;15.93;4.95;;;9.60;81.40;;;;;;4939934;29;20040;-87
2021/03/16 12:34:09;;;;;;;10.75;3.92;;;9.60;82.00;;;;;;4922220;29;20062;-90
2021/03/16 12:37:15;;;;;;;17.70;5.15;;;9.60;82.20;;;;;;4921217;29;20055;-88
2021/03/16 12:40:14;;;;;;;13.27;4.60;;;9.60;82.20;;;;;;4934951;29;20034;-88
2021/03/16 12:49:05;;;;;;;10.15;3.60;;;9.60;83.00;;;;;;5304480;23;20031;-86
2021/03/16 12:51:54;;;;;;;9.52;3.97;;;10.30;80.60;;;;;;4941475;29;20040;-88
2021/03/16 12:54:44;;;;;;;41.85;6.28;;;10.90;78.00;;;;;;4941178;29;20056;-87
2021/03/16 12:57:32;;;;;;;11.15;3.90;;;11.60;73.00;;;;;;5045510;23;20091;-85
2021/03/16 13:00:19;;;;;;;11.27;3.67;;;12.10;69.70;;;;;;4923108;29;20049;-84
2021/03/16 13:03:10;;;;;;;13.10;3.40;;;12.20;68.30;;;;;;4920128;29;20043;-84
2021/03/16 13:05:56;;;;;;;7.80;3.15;;;11.90;67.50;;;;;;4932310;29;20058;-85
2021/03/16 13:08:44;;;;;;;11.88;3.53;;;11.90;67.40;;;;;;4915740;29;20062;-87
2021/03/16 13:11:36;;;;;;;23.27;4.57;;;12.10;66.50;;;;;;4920700;29;20052;-88
2021/03/16 13:14:35;;;;;;;12.20;3.60;;;12.30;66.40;;;;;;4921279;29;20052;-87
2021/03/16 13:17:33;;;;;;;18.90;3.80;;;13.10;64.80;;;;;;4939221;29;20039;-87
2021/03/16 13:20:22;;;;;;;13.90;4.15;;;13.70;60.60;;;;;;4900907;29;20124;-87
2021/03/16 13:23:15;;;;;;;20.77;3.80;;;12.70;60.90;;;;;;4917157;29;20051;-86
2021/03/16 13:26:10;;;;;;;14.52;2.85;;;12.00;63.80;;;;;;4916832;29;20056;-88
2021/03/16 13:28:57;;;;;;;10.10;2.30;;;11.50;65.10;;;;;;5385445;23;20051;-88
2021/03/16 13:31:47;;;;;;;8.07;2.50;;;11.20;66.70;;;;;;4933077;29;20054;-86
2021/03/16 13:34:39;;;;;;;7.85;2.65;;;11.40;64.60;;;;;;4936120;29;20058;-87
2021/03/16 13:37:30;;;;;;;6.85;2.60;;;11.80;64.20;;;;;;4923533;29;20136;-87
2021/03/16 13:40:23;;;;;;;12.85;2.78;;;12.30;61.00;;;;;;4940554;29;20085;-86
2021/03/16 13:43:15;;;;;;;12.18;2.95;;;11.80;62.00;;;;;;4937558;29;20048;-86
2021/03/16 13:46:02;;;;;;;7.28;2.35;;;11.20;64.30;;;;;;4951243;29;20066;-87
2021/03/16 13:48:56;;;;;;;3.05;1.85;;;12.20;61.40;;;;;;4953437;29;20062;-86
2021/03/16 13:51:47;;;;;;;6.80;1.65;;;13.40;57.30;;;;;;4934781;29;20056;-86
2021/03/16 13:54:34;;;;;;;6.32;2.13;;;15.00;52.80;;;;;;4939862;29;20047;-87
2021/03/16 13:57:24;;;;;;;5.15;1.90;;;14.70;51.40;;;;;;4936815;29;20062;-88
2021/03/16 14:00:14;;;;;;;12.07;2.33;;;14.50;51.50;;;;;;4934945;29;20051;-86
2021/03/16 14:03:05;;;;;;;6.93;1.40;;;14.80;50.70;;;;;;4927954;29;20052;-85
2021/03/16 14:05:56;;;;;;;4.03;1.20;;;15.40;48.00;;;;;;4941556;29;20048;-87
2021/03/16 14:09:20;;;;;;;;;;;16.70;46.70;;;;;;4943501;29;20035;-86
2021/03/16 14:12:10;;;;;;;12.23;1.45;;;17.20;44.30;;;;;;4942397;29;19927;-86
2021/03/16 14:15:04;;;;;;;4.63;1.80;;;17.40;43.80;;;;;;4933114;29;20035;-85
2021/03/16 14:17:53;;;;;;;8.02;1.90;;;17.00;45.30;;;;;;4979711;23;21211;-86
2021/03/16 14:20:53;;;;;;;12.25;2.53;;;16.50;45.90;;;;;;4926505;29;20052;-85
2021/03/16 14:23:44;;;;;;;10.50;2.08;;;14.70;49.00;;;;;;4920973;29;20044;-86
2021/03/16 14:26:34;;;;;;;9.57;1.75;;;13.30;52.10;;;;;;4908201;29;20152;-85
2021/03/16 14:29:22;;;;;;;5.25;1.45;;;12.10;54.80;;;;;;4925354;29;20054;-87
2021/03/16 14:32:30;;;;;;;5.22;1.20;;;11.90;57.80;;;;;;4924734;29;20066;-86
2021/03/16 14:35:25;;;;;;;9.63;2.50;;;12.80;54.50;;;;;;4926077;29;20032;-87
2021/03/16 14:43:54;;;;;;;7.05;1.55;;;16.70;44.90;;;;;;5141150;23;20048;-88
2021/03/16 14:46:40;;;;;;;7.20;2.15;;;18.10;41.80;;;;;;5198919;23;20067;-88
2021/03/16 14:49:29;;;;;;;8.27;1.40;;;19.20;41.40;;;;;;4911224;29;20394;-90
2021/03/16 14:52:15;;;;;;;12.60;1.77;;;20.10;39.10;;;;;;4920525;29;20386;-86
2021/03/16 14:55:11;;;;;;;10.60;2.40;;;19.90;39.20;;;;;;5068304;23;20056;-85
2021/03/16 14:57:58;;;;;;;6.65;1.55;;;19.90;39.60;;;;;;4956081;23;20850;-85
2021/03/16 15:00:47;;;;;;;9.75;1.35;;;19.30;39.40;;;;;;5635877;23;20041;-88
2021/03/16 15:09:31;;;;;;;7.22;1.42;;;14.80;46.20;;;;;;5681851;23;20066;-88
2021/03/16 15:16:01;;;;;;;5.43;1.40;;;14.20;49.10;;;;;;5274395;23;20051;-87
2021/03/16 15:21:48;;;;;;;4.28;1.20;;;16.80;44.20;;;;;;5514266;23;20036;-86